Time;durP1;ratioP1;P1;durP2;ratioP2;P2;SDS_P1;SDS_P2;PMS_P1;PMS_P2;Temp;Humidity;BMP_temperature;BMP_pressure;BME280_temperature;BME280_humidity;BME280_pressure;Samples;Min_cycle;Max_cycle;Signal;HPM_P1;HPM_P2
2022/09/09 09:07:56;;;;;;;6.70;2.38;;;19.30;99.90;;;;;;5112157;27;20570;-72
2022/09/09 09:13:50;;;;;;;6.28;2.20;;;19.00;99.90;;;;;;5111637;28;20189;-72
2022/09/09 09:16:19;;;;;;;9.35;4.15;;;19.00;99.90;;;;;;5127099;28;20264;-72
2022/09/09 09:18:45;;;;;;;7.15;3.47;;;19.00;99.90;;;;;;5126929;28;20187;-72
2022/09/09 09:21:34;;;;;;;8.70;2.40;;;19.10;99.90;;;;;;5127143;28;20172;-73
2022/09/09 09:27:39;;;;;;;3.92;1.75;;;19.70;99.90;;;;;;5110937;28;20195;-72
2022/09/09 09:34:11;;;;;;;12.18;2.30;;;20.10;99.90;;;;;;5110752;28;20231;-73
2022/09/09 09:37:04;;;;;;;10.35;2.50;;;20.20;99.90;;;;;;5126745;28;20244;-72
2022/09/09 09:39:38;;;;;;;5.20;2.05;;;20.10;99.90;;;;;;5126942;28;20175;-72
2022/09/09 09:42:15;;;;;;;3.58;1.63;;;20.20;99.90;;;;;;5126410;28;20231;-72
2022/09/09 09:44:42;;;;;;;7.53;2.17;;;20.40;99.90;;;;;;5126854;28;20220;-72
2022/09/09 09:47:08;;;;;;;4.93;2.00;;;20.60;99.90;;;;;;5126856;28;20200;-76
2022/09/09 09:53:04;;;;;;;7.63;1.90;;;21.00;99.90;;;;;;5110723;28;20293;-72
2022/09/09 09:56:25;;;;;;;6.07;1.85;;;21.20;99.90;;;;;;5126304;28;20643;-72
2022/09/09 10:02:13;;;;;;;4.57;1.77;;;21.70;99.90;;;;;;5110480;28;20212;-73
2022/09/09 10:05:25;;;;;;;6.10;1.67;;;21.70;99.90;;;;;;5126845;28;20180;-71
2022/09/09 10:08:11;;;;;;;3.97;1.35;;;21.60;99.90;;;;;;5108783;28;20200;-73
2022/09/09 10:11:30;;;;;;;6.50;1.88;;;21.40;99.90;;;;;;5110482;28;20354;-73
2022/09/09 10:14:20;;;;;;;9.25;1.80;;;21.30;99.90;;;;;;5126412;28;20701;-72
2022/09/09 10:16:58;;;;;;;16.70;2.65;;;21.30;99.90;;;;;;5108000;28;20202;-71
2022/09/09 10:23:10;;;;;;;6.90;1.60;;;21.70;99.90;;;;;;5096656;28;20211;-73
2022/09/09 10:29:43;;;;;;;6.32;1.50;;;21.80;99.90;;;;;;5097158;28;20200;-72
2022/09/09 10:35:44;;;;;;;6.55;2.05;;;21.30;99.90;;;;;;5096810;28;20520;-72
2022/09/09 10:38:35;;;;;;;8.77;2.03;;;21.20;99.90;;;;;;5112671;28;20161;-73
2022/09/09 10:41:45;;;;;;;4.07;1.50;;;21.30;99.90;;;;;;5096404;28;20206;-73
2022/09/09 10:44:39;;;;;;;4.88;1.65;;;21.30;99.90;;;;;;5111927;28;20167;-72
2022/09/09 10:47:32;;;;;;;8.10;1.90;;;21.60;99.90;;;;;;5113499;28;20188;-73
2022/09/09 10:50:39;;;;;;;5.75;1.77;;;21.90;99.90;;;;;;5097957;28;20153;-72
2022/09/09 10:53:17;;;;;;;6.10;1.48;;;21.80;99.90;;;;;;5112515;28;20205;-73
2022/09/09 10:55:56;;;;;;;5.03;1.52;;;21.70;99.90;;;;;;5113216;28;20169;-73
2022/09/09 10:58:51;;;;;;;3.92;1.48;;;21.40;99.90;;;;;;5115052;28;20624;-73
2022/09/09 11:01:29;;;;;;;6.47;1.70;;;21.50;99.90;;;;;;5100363;28;20196;-73
2022/09/09 11:04:05;;;;;;;6.32;2.10;;;21.30;99.90;;;;;;5115921;28;20204;-73
2022/09/09 11:06:39;;;;;;;5.38;1.80;;;21.10;99.90;;;;;;5115590;28;20286;-73
2022/09/09 11:09:16;;;;;;;4.47;1.83;;;20.90;99.90;;;;;;5115840;28;20252;-73
2022/09/09 11:11:53;;;;;;;5.60;1.52;;;20.60;99.90;;;;;;5115518;28;20164;-76
2022/09/09 11:15:11;;;;;;;6.18;1.75;;;20.40;99.90;;;;;;5115899;28;20677;-73
2022/09/09 11:17:46;;;;;;;6.30;1.50;;;20.10;99.90;;;;;;5097220;28;20188;-73
2022/09/09 11:20:14;;;;;;;3.65;1.58;;;19.80;99.90;;;;;;5115260;28;20168;-73
2022/09/09 11:22:48;;;;;;;4.18;1.80;;;19.80;99.90;;;;;;5114245;28;20201;-73
2022/09/09 11:26:10;;;;;;;4.82;1.88;;;19.80;99.90;;;;;;5114448;28;20169;-73
2022/09/09 11:29:22;;;;;;;5.70;1.80;;;19.80;99.90;;;;;;5114242;28;20158;-73
2022/09/09 11:32:21;;;;;;;8.10;1.80;;;19.90;99.90;;;;;;5096388;28;20228;-73
2022/09/09 11:35:05;;;;;;;6.57;1.73;;;19.90;99.90;;;;;;5113321;28;20165;-73
2022/09/09 11:38:09;;;;;;;8.13;1.55;;;19.90;99.90;;;;;;5096202;28;20210;-73
2022/09/09 11:40:42;;;;;;;5.07;1.85;;;19.80;99.90;;;;;;5095959;28;20218;-73
2022/09/09 11:43:21;;;;;;;5.35;1.90;;;19.80;99.90;;;;;;5111475;28;20193;-71
2022/09/09 11:45:59;;;;;;;5.72;1.85;;;19.90;99.90;;;;;;5111364;28;20199;-72
2022/09/09 11:49:03;;;;;;;4.90;1.70;;;20.20;99.90;;;;;;5111414;28;20165;-71
2022/09/09 11:51:33;;;;;;;4.50;1.63;;;20.40;99.90;;;;;;5111317;28;20189;-71
2022/09/09 11:54:02;;;;;;;3.92;1.40;;;20.70;99.90;;;;;;5110416;28;20258;-71
2022/09/09 11:56:31;;;;;;;3.10;1.55;;;20.80;99.90;;;;;;5111123;28;20192;-71
2022/09/09 11:59:02;;;;;;;3.83;1.45;;;21.10;99.90;;;;;;5110440;28;20173;-76
2022/09/09 12:01:35;;;;;;;3.97;1.45;;;21.10;99.90;;;;;;5094758;28;20640;-71
2022/09/09 12:04:15;;;;;;;2.78;1.63;;;21.10;99.90;;;;;;5094656;28;20217;-72
2022/09/09 12:06:46;;;;;;;3.58;1.60;;;21.00;99.90;;;;;;5110276;28;20584;-72
2022/09/09 12:12:44;;;;;;;5.38;1.70;;;20.80;99.90;;;;;;5094138;28;20238;-72
2022/09/09 12:16:06;;;;;;;4.18;1.40;;;20.50;99.90;;;;;;5110367;28;20218;-71
2022/09/09 12:18:44;;;;;;;2.42;1.30;;;20.30;99.90;;;;;;5110860;28;20580;-71
2022/09/09 12:24:59;;;;;;;3.88;1.40;;;20.40;99.90;;;;;;5094082;28;20155;-72
2022/09/09 12:27:41;;;;;;;4.72;1.50;;;20.90;99.90;;;;;;5110245;28;20659;-71
2022/09/09 12:30:21;;;;;;;4.93;1.35;;;21.60;99.90;;;;;;5094241;28;20161;-71
2022/09/09 12:32:47;;;;;;;5.03;1.23;;;22.00;99.90;;;;;;5109723;28;20247;-71
2022/09/09 12:35:23;;;;;;;9.63;2.03;;;22.10;99.90;;;;;;5109747;28;20172;-71
2022/09/09 12:37:59;;;;;;;5.78;1.38;;;22.20;99.90;;;;;;5110727;28;20176;-71
2022/09/09 12:40:35;;;;;;;8.02;1.90;;;22.30;99.90;;;;;;5109516;28;20164;-71
2022/09/09 12:43:18;;;;;;;4.93;1.58;;;22.00;99.90;;;;;;5095030;28;20182;-74
2022/09/09 12:46:03;;;;;;;3.35;1.30;;;21.60;99.90;;;;;;5111389;28;20687;-73
2022/09/09 12:48:39;;;;;;;2.42;1.23;;;21.20;99.90;;;;;;5113234;28;20172;-73
2022/09/09 12:51:16;;;;;;;2.30;1.15;;;20.90;99.90;;;;;;5112680;28;20212;-73
2022/09/09 12:53:41;;;;;;;3.78;1.17;;;20.60;99.90;;;;;;5113041;28;20685;-72
2022/09/09 12:56:18;;;;;;;3.80;1.10;;;20.50;99.90;;;;;;5113549;28;20180;-72
2022/09/09 12:58:51;;;;;;;3.08;1.30;;;20.40;99.90;;;;;;5113325;28;20164;-72
2022/09/09 13:01:26;;;;;;;3.00;1.10;;;20.20;99.90;;;;;;5097096;28;20165;-72
2022/09/09 13:03:52;;;;;;;3.80;1.48;;;20.30;99.90;;;;;;5097240;28;20203;-72
2022/09/09 13:06:30;;;;;;;4.38;1.30;;;20.40;99.90;;;;;;5112057;28;20311;-73
2022/09/09 13:09:00;;;;;;;4.93;1.40;;;20.60;99.90;;;;;;5096131;28;20161;-73
2022/09/09 13:11:36;;;;;;;3.17;1.38;;;20.80;99.90;;;;;;5112818;28;20165;-73
2022/09/09 13:14:02;;;;;;;3.10;1.27;;;20.90;99.90;;;;;;5113906;28;20196;-74
2022/09/09 13:16:33;;;;;;;3.55;1.13;;;21.10;99.90;;;;;;5096959;28;20204;-73
2022/09/09 13:19:14;;;;;;;3.50;1.08;;;21.20;99.90;;;;;;5113456;28;20518;-73
2022/09/09 13:21:47;;;;;;;5.80;1.23;;;21.40;99.90;;;;;;5110127;28;20164;-72
2022/09/09 13:24:33;;;;;;;2.25;1.20;;;21.60;99.90;;;;;;5110636;28;20191;-72
2022/09/09 13:27:02;;;;;;;2.47;1.13;;;21.70;99.90;;;;;;5111506;28;20597;-72
2022/09/09 13:29:29;;;;;;;5.55;1.45;;;21.80;99.40;;;;;;5110647;28;20268;-72
2022/09/09 13:32:18;;;;;;;4.80;1.25;;;22.10;99.60;;;;;;5109961;28;20197;-72
2022/09/09 13:35:03;;;;;;;3.78;1.30;;;22.60;98.70;;;;;;5109181;28;20157;-73
2022/09/09 13:37:38;;;;;;;2.40;1.10;;;23.00;98.30;;;;;;5093299;28;20219;-72
2022/09/09 13:40:05;;;;;;;3.38;1.30;;;23.20;97.30;;;;;;5093183;28;20210;-72
2022/09/09 13:42:42;;;;;;;4.63;1.45;;;23.00;97.70;;;;;;5108891;28;20201;-72
2022/09/09 13:45:20;;;;;;;14.98;1.80;;;22.90;97.40;;;;;;5109692;28;20157;-72
2022/09/09 13:48:09;;;;;;;7.60;1.70;;;22.70;97.60;;;;;;5109832;28;20165;-74
2022/09/09 13:50:35;;;;;;;2.80;1.15;;;22.60;99.10;;;;;;5109268;28;20157;-71
2022/09/09 13:53:01;;;;;;;1.65;1.00;;;22.50;96.40;;;;;;5095221;28;20211;-72
2022/09/09 13:55:28;;;;;;;2.55;1.10;;;22.50;95.40;;;;;;5112727;28;20582;-71
2022/09/09 13:58:00;;;;;;;4.40;1.42;;;22.50;96.70;;;;;;5112948;28;20177;-72
2022/09/09 14:00:29;;;;;;;1.77;0.90;;;22.60;95.60;;;;;;5096859;28;20223;-72
2022/09/09 14:02:55;;;;;;;2.33;1.15;;;22.60;95.10;;;;;;5112582;28;20243;-72
2022/09/09 14:05:22;;;;;;;4.65;0.90;;;22.60;94.10;;;;;;5113429;28;20216;-72
2022/09/09 14:07:48;;;;;;;4.57;1.15;;;22.60;94.00;;;;;;5112482;28;20655;-71
2022/09/09 14:10:14;;;;;;;7.13;1.00;;;22.60;93.20;;;;;;5096667;28;20179;-71
2022/09/09 14:12:40;;;;;;;2.72;1.05;;;22.60;93.20;;;;;;5112430;28;20193;-72
2022/09/09 14:15:07;;;;;;;4.93;1.20;;;22.50;92.60;;;;;;5112610;28;20180;-71
2022/09/09 14:17:33;;;;;;;2.40;0.93;;;22.40;93.00;;;;;;5096709;28;20169;-71
2022/09/09 14:20:09;;;;;;;3.13;1.20;;;22.30;91.90;;;;;;5113143;28;20179;-71
2022/09/09 14:22:36;;;;;;;1.40;0.80;;;22.00;91.50;;;;;;5112202;28;20239;-72
2022/09/09 14:25:03;;;;;;;12.93;2.30;;;21.80;91.70;;;;;;5112987;28;20176;-71
2022/09/09 14:27:29;;;;;;;2.85;1.20;;;21.70;92.50;;;;;;5112529;28;20180;-71
2022/09/09 14:33:17;;;;;;;4.68;1.38;;;21.80;95.50;;;;;;5096449;28;20222;-71
2022/09/09 14:35:43;;;;;;;2.55;1.25;;;21.50;97.30;;;;;;5112077;28;20184;-72
2022/09/09 14:38:09;;;;;;;3.65;1.40;;;21.20;99.00;;;;;;5112805;28;20264;-72
2022/09/09 14:40:36;;;;;;;3.47;1.42;;;20.90;99.90;;;;;;5096784;28;20666;-72
2022/09/09 14:43:21;;;;;;;8.25;1.48;;;20.60;99.90;;;;;;5111782;28;20736;-71
2022/09/09 14:45:47;;;;;;;2.65;1.10;;;20.40;99.90;;;;;;5096416;28;20196;-72
2022/09/09 14:48:14;;;;;;;2.83;1.25;;;20.20;99.90;;;;;;5112275;28;20180;-73
2022/09/09 14:50:40;;;;;;;1.58;1.17;;;20.10;99.90;;;;;;5095955;28;20180;-73
2022/09/09 14:53:06;;;;;;;2.50;0.90;;;20.10;99.90;;;;;;5112175;28;20283;-73
2022/09/09 14:55:32;;;;;;;3.33;0.90;;;20.10;99.90;;;;;;5111602;28;20173;-73
2022/09/09 14:57:58;;;;;;;5.97;1.25;;;20.20;99.00;;;;;;5111534;28;20187;-73
2022/09/09 15:00:24;;;;;;;1.48;0.93;;;20.20;98.70;;;;;;5111549;28;20176;-73
2022/09/09 15:02:55;;;;;;;6.60;1.30;;;20.20;98.90;;;;;;5111508;28;20204;-73
2022/09/09 15:05:22;;;;;;;3.13;1.00;;;20.30;99.00;;;;;;5111377;28;20196;-73
2022/09/09 15:07:48;;;;;;;4.13;1.05;;;20.30;97.40;;;;;;5112540;28;20255;-73
2022/09/09 15:10:14;;;;;;;1.83;1.05;;;20.30;98.30;;;;;;5112075;28;20179;-73
2022/09/09 15:12:41;;;;;;;1.20;0.85;;;20.30;98.70;;;;;;5111461;28;20197;-73
2022/09/09 15:15:07;;;;;;;3.50;1.20;;;20.20;98.80;;;;;;5111833;28;20183;-73
2022/09/09 15:17:33;;;;;;;1.45;0.90;;;20.30;99.30;;;;;;5111191;28;20223;-73
2022/09/09 15:19:58;;;;;;;3.10;1.02;;;20.30;99.30;;;;;;5112043;28;20205;-73
2022/09/09 15:22:24;;;;;;;2.30;1.23;;;20.30;99.30;;;;;;5111493;28;20250;-73
2022/09/09 15:24:50;;;;;;;2.30;1.00;;;20.30;99.30;;;;;;5111536;28;20222;-73
2022/09/09 15:27:16;;;;;;;3.47;1.10;;;20.40;99.20;;;;;;5111093;28;20201;-73
2022/09/09 15:29:42;;;;;;;3.72;1.20;;;20.50;99.90;;;;;;5111478;28;20169;-73
2022/09/09 15:32:08;;;;;;;2.05;1.00;;;20.60;99.30;;;;;;5096036;28;20189;-73
2022/09/09 15:34:33;;;;;;;2.03;0.93;;;20.70;98.40;;;;;;5111992;28;20651;-73
2022/09/09 15:36:59;;;;;;;6.88;1.60;;;20.80;97.50;;;;;;5111885;28;20271;-73
2022/09/09 15:39:25;;;;;;;3.55;1.10;;;20.80;97.20;;;;;;5095827;28;20181;-73
2022/09/09 15:41:51;;;;;;;3.20;1.00;;;20.70;96.80;;;;;;5111717;28;20298;-72
2022/09/09 15:44:18;;;;;;;8.43;1.70;;;20.50;97.60;;;;;;5111891;28;20647;-72
2022/09/09 15:46:50;;;;;;;5.53;1.30;;;20.40;97.70;;;;;;5110728;28;20232;-72
2022/09/09 15:49:18;;;;;;;2.63;1.13;;;20.30;98.60;;;;;;5110509;28;20177;-72
2022/09/09 15:51:46;;;;;;;3.10;1.20;;;20.20;98.60;;;;;;5110864;28;20211;-72
2022/09/09 15:54:17;;;;;;;2.05;1.00;;;20.00;99.30;;;;;;5110518;28;20185;-72
2022/09/09 15:56:43;;;;;;;2.15;0.95;;;19.90;99.80;;;;;;5110437;28;20169;-72
2022/09/09 15:59:09;;;;;;;2.22;0.90;;;19.80;99.90;;;;;;5110508;28;20173;-72
2022/09/09 16:01:35;;;;;;;1.60;1.10;;;19.70;99.90;;;;;;5110297;28;20203;-72
2022/09/09 16:04:01;;;;;;;3.33;1.10;;;19.60;99.90;;;;;;5110666;28;20263;-72
2022/09/09 16:06:28;;;;;;;2.60;1.13;;;19.50;99.90;;;;;;5110412;28;20208;-72
2022/09/09 16:08:55;;;;;;;1.17;1.02;;;19.40;99.90;;;;;;5110473;28;20169;-72
2022/09/09 16:11:30;;;;;;;1.92;0.90;;;19.40;99.90;;;;;;5110100;28;20177;-72
2022/09/09 16:13:57;;;;;;;2.95;1.10;;;19.40;99.90;;;;;;5110516;28;20668;-72
2022/09/09 16:16:26;;;;;;;1.75;1.10;;;19.50;99.60;;;;;;5109643;28;20211;-72
2022/09/09 16:18:54;;;;;;;2.67;1.00;;;19.60;99.10;;;;;;5110259;28;20271;-72
2022/09/09 16:21:37;;;;;;;3.38;1.17;;;19.60;99.90;;;;;;5110924;28;20176;-72
2022/09/09 16:24:03;;;;;;;3.22;1.38;;;19.60;98.60;;;;;;5109977;28;20247;-72
2022/09/09 16:26:31;;;;;;;3.05;1.10;;;19.70;98.00;;;;;;5109984;28;20231;-72
2022/09/09 16:28:58;;;;;;;2.13;0.85;;;19.60;97.50;;;;;;5110113;28;20176;-72
2022/09/09 16:31:25;;;;;;;3.00;1.20;;;19.60;97.50;;;;;;5110123;28;20180;-72
2022/09/09 16:33:51;;;;;;;4.07;1.20;;;19.60;97.40;;;;;;5109887;28;20200;-72
2022/09/09 16:36:19;;;;;;;2.90;1.15;;;19.60;97.30;;;;;;5110519;28;20184;-72
2022/09/09 16:38:45;;;;;;;2.42;1.27;;;19.40;97.50;;;;;;5109673;28;20177;-72
2022/09/09 16:41:12;;;;;;;2.90;1.38;;;19.40;97.60;;;;;;5094360;28;20172;-72
2022/09/09 16:43:40;;;;;;;2.47;1.23;;;19.20;98.00;;;;;;5109468;28;20192;-72
2022/09/09 16:46:17;;;;;;;2.65;1.15;;;19.20;98.50;;;;;;5110528;28;20205;-72
2022/09/09 16:48:44;;;;;;;2.58;1.02;;;19.00;99.00;;;;;;5110342;28;20222;-72
2022/09/09 16:51:23;;;;;;;2.85;1.20;;;18.90;99.10;;;;;;5110211;28;20177;-72
2022/09/09 16:53:49;;;;;;;4.72;1.30;;;18.80;99.70;;;;;;5109846;28;20280;-72
2022/09/09 16:56:18;;;;;;;2.47;1.33;;;18.70;99.90;;;;;;5109454;28;20222;-72
2022/09/09 16:58:48;;;;;;;3.45;1.10;;;18.70;99.90;;;;;;5109744;28;20234;-72
2022/09/09 17:01:14;;;;;;;3.72;1.00;;;18.60;99.90;;;;;;5110219;28;20172;-72
2022/09/09 17:03:40;;;;;;;2.08;1.10;;;18.50;99.90;;;;;;5093999;28;20204;-72
2022/09/09 17:06:14;;;;;;;7.70;1.50;;;18.50;99.90;;;;;;5093477;28;20208;-72
2022/09/09 17:08:43;;;;;;;2.13;1.08;;;18.30;99.90;;;;;;5109357;28;20169;-72
2022/09/09 17:11:18;;;;;;;3.45;1.45;;;18.30;99.90;;;;;;5109532;28;20204;-72
2022/09/09 17:13:45;;;;;;;5.10;1.35;;;18.20;99.90;;;;;;5109161;28;20694;-72
2022/09/09 17:16:11;;;;;;;3.70;1.17;;;18.20;99.90;;;;;;5109429;28;20220;-72
2022/09/09 17:18:37;;;;;;;4.38;1.50;;;18.20;99.90;;;;;;5109217;28;20181;-72
2022/09/09 17:21:08;;;;;;;6.63;1.17;;;18.10;99.90;;;;;;5109188;28;20241;-72
2022/09/09 17:23:37;;;;;;;3.17;1.35;;;18.10;99.90;;;;;;5109094;28;20196;-72
2022/09/09 17:26:05;;;;;;;3.22;1.17;;;18.00;99.90;;;;;;5093581;28;20211;-72
2022/09/09 17:28:31;;;;;;;2.85;1.20;;;17.90;99.90;;;;;;5112283;28;20177;-72
2022/09/09 17:31:00;;;;;;;2.58;1.15;;;17.80;99.90;;;;;;5113591;28;20179;-72
2022/09/09 17:33:27;;;;;;;6.32;1.50;;;17.70;99.90;;;;;;5113561;28;20208;-72
2022/09/09 17:35:53;;;;;;;3.60;1.10;;;17.50;99.90;;;;;;5113156;28;20176;-72
2022/09/09 17:38:18;;;;;;;3.95;1.40;;;17.40;99.90;;;;;;5096065;28;20674;-72
2022/09/09 17:40:44;;;;;;;3.75;1.50;;;17.30;99.90;;;;;;5113082;28;20177;-72
2022/09/09 17:43:10;;;;;;;2.70;1.30;;;17.30;99.90;;;;;;5113712;28;20208;-72
2022/09/09 17:45:35;;;;;;;2.83;1.30;;;17.10;99.90;;;;;;5112906;28;20288;-72
2022/09/09 17:48:02;;;;;;;3.80;1.58;;;17.00;99.90;;;;;;5113207;28;20263;-72
2022/09/09 17:50:28;;;;;;;1.88;1.23;;;17.00;99.90;;;;;;5097364;28;20200;-72
2022/09/09 17:52:53;;;;;;;2.58;1.50;;;16.90;99.90;;;;;;5112777;28;20228;-72
2022/09/09 17:55:20;;;;;;;3.53;1.55;;;16.80;99.90;;;;;;5112817;28;20278;-72
2022/09/09 17:57:45;;;;;;;3.03;1.58;;;16.70;99.90;;;;;;5113873;28;20173;-72
2022/09/09 18:00:12;;;;;;;2.50;1.13;;;16.70;99.90;;;;;;5097683;28;20225;-72
2022/09/09 18:02:37;;;;;;;2.35;1.23;;;16.60;99.90;;;;;;5112609;28;20664;-72
2022/09/09 18:05:03;;;;;;;4.13;1.42;;;16.50;99.90;;;;;;5112376;28;20203;-72
2022/09/09 18:07:29;;;;;;;4.80;1.40;;;16.40;99.90;;;;;;5112482;28;20201;-72
2022/09/09 18:09:54;;;;;;;2.28;1.42;;;16.40;99.90;;;;;;5095595;28;20218;-72
2022/09/09 18:12:20;;;;;;;2.85;1.30;;;16.40;99.90;;;;;;5112645;28;20188;-72
2022/09/09 18:14:47;;;;;;;2.80;1.20;;;16.40;99.90;;;;;;5112546;28;20169;-72
2022/09/09 18:17:12;;;;;;;2.38;1.13;;;16.30;99.90;;;;;;5096850;28;20181;-72
2022/09/09 18:19:38;;;;;;;2.20;1.00;;;16.20;99.90;;;;;;5113515;28;20188;-72
2022/09/09 18:22:05;;;;;;;1.95;1.05;;;16.20;99.90;;;;;;5096574;28;20176;-72
2022/09/09 18:24:32;;;;;;;1.73;1.00;;;16.10;99.90;;;;;;5113124;28;20230;-72
2022/09/09 18:26:58;;;;;;;2.50;1.00;;;16.10;99.90;;;;;;5096308;28;20193;-72
2022/09/09 18:29:25;;;;;;;2.70;0.98;;;16.00;99.90;;;;;;5112734;28;20713;-72
2022/09/09 18:31:52;;;;;;;3.00;1.05;;;16.00;99.90;;;;;;5112772;28;20168;-72
2022/09/09 18:34:18;;;;;;;3.85;1.05;;;16.00;99.90;;;;;;5112034;28;20276;-77
2022/09/09 18:36:46;;;;;;;1.52;1.05;;;16.00;99.90;;;;;;5112312;28;20181;-72
2022/09/09 18:42:34;;;;;;;4.25;1.20;;;15.90;99.90;;;;;;5096378;28;20216;-72
2022/09/09 18:44:59;;;;;;;5.13;1.30;;;15.90;99.90;;;;;;5113060;28;20619;-72
2022/09/09 18:47:25;;;;;;;1.67;1.10;;;15.80;99.90;;;;;;5112198;28;20231;-70
2022/09/09 18:49:50;;;;;;;3.38;1.10;;;15.80;99.90;;;;;;5111634;28;20203;-71
2022/09/09 18:52:16;;;;;;;1.88;1.27;;;15.70;99.90;;;;;;5111569;28;20196;-71
2022/09/09 18:54:50;;;;;;;3.85;2.35;;;15.60;99.90;;;;;;5112194;28;20691;-70
2022/09/09 18:57:17;;;;;;;6.57;4.22;;;15.60;99.90;;;;;;5111572;28;20181;-71
2022/09/09 18:59:43;;;;;;;4.25;3.40;;;15.60;99.90;;;;;;5111558;28;20181;-71
2022/09/09 19:02:11;;;;;;;3.95;3.08;;;15.60;99.90;;;;;;5111683;28;20193;-71
2022/09/09 19:04:37;;;;;;;4.55;2.38;;;15.60;99.90;;;;;;5111682;28;20187;-71
2022/09/09 19:07:03;;;;;;;2.65;1.90;;;15.60;99.90;;;;;;5111109;28;20208;-71
2022/09/09 19:12:50;;;;;;;4.00;1.65;;;15.60;99.90;;;;;;5095862;28;20276;-71
2022/09/09 19:15:16;;;;;;;0.88;0.85;;;15.60;99.90;;;;;;5111527;28;20204;-71
2022/09/09 19:17:42;;;;;;;3.13;1.55;;;15.70;99.90;;;;;;5095931;28;20161;-71
2022/09/09 19:20:08;;;;;;;1.50;0.90;;;15.70;99.90;;;;;;5111423;28;20244;-72
2022/09/09 19:22:34;;;;;;;6.55;1.40;;;15.70;99.90;;;;;;5095505;28;20225;-71
2022/09/09 19:25:18;;;;;;;3.28;1.02;;;15.70;99.90;;;;;;5111341;28;20222;-71
2022/09/09 19:27:43;;;;;;;5.47;1.10;;;15.60;99.90;;;;;;5096130;28;20173;-72
2022/09/09 19:30:15;;;;;;;3.78;1.35;;;15.60;99.90;;;;;;5111691;28;20226;-72
2022/09/09 19:32:41;;;;;;;1.65;1.00;;;15.50;99.90;;;;;;5096644;28;20189;-72
2022/09/09 19:35:08;;;;;;;2.30;1.05;;;15.50;99.90;;;;;;5112018;28;20666;-72
2022/09/09 19:37:34;;;;;;;1.58;1.13;;;15.40;99.90;;;;;;5111791;28;20207;-72
2022/09/09 19:40:00;;;;;;;5.82;1.35;;;15.40;99.90;;;;;;5112443;28;20191;-72
2022/09/09 19:42:41;;;;;;;4.65;1.40;;;15.30;99.90;;;;;;5113133;28;20200;-72
2022/09/09 19:45:15;;;;;;;2.50;1.10;;;15.30;99.90;;;;;;5112444;28;20198;-72
2022/09/09 19:48:05;;;;;;;4.68;1.20;;;15.20;99.90;;;;;;5112582;28;20200;-71
2022/09/09 19:50:35;;;;;;;2.47;1.17;;;15.10;99.90;;;;;;5110985;28;20177;-71
2022/09/09 19:53:27;;;;;;;2.25;1.10;;;15.00;99.90;;;;;;5096063;28;20246;-72
2022/09/09 19:56:12;;;;;;;4.03;1.20;;;15.00;99.90;;;;;;5111691;28;20169;-71
2022/09/09 19:58:41;;;;;;;2.78;1.40;;;14.90;99.90;;;;;;5111301;28;20173;-72
2022/09/09 20:01:35;;;;;;;3.90;1.30;;;14.90;99.90;;;;;;5095567;28;20188;-72
2022/09/09 20:04:17;;;;;;;3.83;1.10;;;14.80;99.90;;;;;;5092576;28;20703;-72
2022/09/09 20:06:45;;;;;;;3.78;1.13;;;14.70;99.90;;;;;;5110111;28;20218;-72
2022/09/09 20:09:27;;;;;;;2.58;1.10;;;14.70;99.90;;;;;;5111208;28;20226;-72
2022/09/09 20:11:58;;;;;;;2.33;0.98;;;14.60;99.90;;;;;;5094827;28;20214;-71
2022/09/09 20:14:33;;;;;;;3.17;1.30;;;14.50;99.90;;;;;;5113272;28;20176;-71
2022/09/09 20:17:01;;;;;;;3.60;1.20;;;14.50;99.90;;;;;;5096269;28;20191;-71
2022/09/09 20:19:39;;;;;;;2.40;1.10;;;14.50;99.90;;;;;;5111734;28;20169;-71
2022/09/09 20:22:06;;;;;;;1.58;1.23;;;14.50;99.90;;;;;;5094360;28;20179;-71
2022/09/09 20:24:51;;;;;;;3.15;1.40;;;14.50;99.90;;;;;;5111724;28;20177;-71
2022/09/09 20:27:33;;;;;;;1.80;1.30;;;14.50;99.90;;;;;;5111574;28;20203;-71
2022/09/09 20:29:58;;;;;;;1.90;1.30;;;14.50;99.90;;;;;;5111624;28;20172;-71
2022/09/09 20:32:24;;;;;;;3.78;1.30;;;14.40;99.90;;;;;;5110975;28;20204;-71
2022/09/09 20:35:15;;;;;;;3.65;1.33;;;14.40;99.90;;;;;;5110679;28;20204;-71
2022/09/09 20:37:43;;;;;;;3.88;1.20;;;14.40;99.90;;;;;;5110203;28;20189;-72
2022/09/09 20:40:21;;;;;;;4.38;1.42;;;14.40;99.90;;;;;;5110914;28;20547;-72
2022/09/09 20:42:51;;;;;;;3.13;1.13;;;14.40;99.90;;;;;;5110449;28;20268;-72
2022/09/09 20:45:16;;;;;;;5.10;1.50;;;14.50;99.90;;;;;;5110184;28;20173;-71
2022/09/09 20:47:42;;;;;;;3.55;1.40;;;14.50;99.90;;;;;;5110569;28;20204;-71
2022/09/09 20:50:09;;;;;;;5.32;1.20;;;14.60;99.90;;;;;;5110438;28;20173;-72
2022/09/09 20:52:34;;;;;;;3.90;1.30;;;14.70;99.90;;;;;;5109449;28;20271;-72
2022/09/09 20:55:00;;;;;;;3.70;1.30;;;14.80;99.90;;;;;;5109440;28;20208;-72
2022/09/09 20:57:25;;;;;;;4.40;1.33;;;14.80;99.90;;;;;;5110355;28;20176;-72
2022/09/09 20:59:51;;;;;;;4.43;1.23;;;14.80;99.90;;;;;;5109858;28;20187;-72
2022/09/09 21:02:17;;;;;;;3.72;1.23;;;14.80;99.90;;;;;;5093708;28;20559;-72
2022/09/09 21:04:43;;;;;;;3.95;1.33;;;14.80;99.90;;;;;;5109652;28;20177;-72
2022/09/09 21:07:09;;;;;;;2.20;1.10;;;14.80;99.90;;;;;;5109743;28;20212;-72
2022/09/09 21:09:35;;;;;;;4.35;1.40;;;14.70;99.90;;;;;;5093559;28;20173;-72
2022/09/09 21:15:23;;;;;;;1.48;0.90;;;14.60;99.90;;;;;;5093814;28;20207;-72
2022/09/09 21:17:48;;;;;;;2.58;1.33;;;14.70;99.90;;;;;;5109267;28;20176;-72
2022/09/09 21:20:14;;;;;;;1.58;1.20;;;14.70;99.90;;;;;;5109092;28;20173;-72
2022/09/09 21:22:40;;;;;;;2.17;1.20;;;14.70;99.90;;;;;;5110170;28;20529;-72
2022/09/09 21:25:06;;;;;;;2.30;1.20;;;14.80;99.90;;;;;;5109135;28;20176;-72
2022/09/09 21:27:32;;;;;;;1.10;1.00;;;14.80;99.90;;;;;;5109544;28;20258;-72
2022/09/09 21:29:57;;;;;;;2.47;1.30;;;14.80;99.90;;;;;;5109105;28;20639;-72
2022/09/09 21:32:23;;;;;;;3.08;1.17;;;14.80;99.90;;;;;;5109331;28;20211;-72
2022/09/09 21:35:40;;;;;;;1.67;1.20;;;14.80;99.90;;;;;;5093139;28;20248;-72
2022/09/09 21:41:41;;;;;;;1.80;1.10;;;14.80;99.90;;;;;;5093514;28;20171;-72
2022/09/09 21:44:08;;;;;;;2.20;1.02;;;14.80;99.90;;;;;;5108894;28;20200;-71
2022/09/09 21:46:33;;;;;;;1.88;1.08;;;14.80;99.90;;;;;;5109904;28;20287;-71
2022/09/09 21:49:02;;;;;;;0.98;0.88;;;14.70;99.90;;;;;;5093378;28;20260;-71
2022/09/09 21:51:27;;;;;;;0.98;0.82;;;14.70;99.90;;;;;;5108828;28;20180;-71
2022/09/09 21:53:55;;;;;;;3.22;1.10;;;14.80;99.90;;;;;;5108696;28;20201;-71
2022/09/09 21:56:20;;;;;;;2.30;1.30;;;14.80;99.90;;;;;;5108959;28;20212;-71
2022/09/09 21:58:46;;;;;;;2.05;0.90;;;14.80;99.90;;;;;;5108795;28;20208;-71
2022/09/09 22:01:17;;;;;;;2.97;1.02;;;14.90;99.90;;;;;;5108752;28;20656;-71
2022/09/09 22:03:45;;;;;;;4.82;1.20;;;14.80;99.90;;;;;;5108787;28;20197;-71
2022/09/09 22:06:13;;;;;;;2.75;1.17;;;14.80;99.90;;;;;;5109117;28;20228;-71
2022/09/09 22:08:39;;;;;;;1.77;1.02;;;14.80;99.90;;;;;;5093193;28;20197;-71
2022/09/09 22:11:07;;;;;;;2.10;1.10;;;14.80;99.90;;;;;;5108613;28;20674;-71
2022/09/09 22:14:10;;;;;;;3.72;1.27;;;14.90;99.90;;;;;;5093786;28;20197;-71
2022/09/09 22:16:35;;;;;;;2.20;1.00;;;14.90;99.90;;;;;;5096615;28;20669;-72
2022/09/09 22:19:01;;;;;;;3.35;0.90;;;14.90;99.90;;;;;;5112305;28;20177;-72
2022/09/09 22:21:29;;;;;;;1.05;1.05;;;15.00;99.90;;;;;;5096745;28;20260;-72
2022/09/09 22:23:58;;;;;;;1.85;0.90;;;15.00;99.90;;;;;;5112171;28;20200;-72
2022/09/09 22:27:12;;;;;;;2.17;1.30;;;15.00;99.90;;;;;;5112171;28;20299;-72
2022/09/09 22:29:38;;;;;;;1.30;1.02;;;15.00;99.90;;;;;;5112155;28;20169;-72
2022/09/09 22:32:06;;;;;;;4.22;1.15;;;15.00;99.90;;;;;;5112358;28;20220;-72
2022/09/09 22:34:34;;;;;;;2.65;1.35;;;15.00;99.90;;;;;;5112324;28;20643;-72
2022/09/09 22:37:01;;;;;;;5.55;1.25;;;15.00;99.90;;;;;;5112276;28;20173;-72
2022/09/09 22:39:28;;;;;;;2.03;1.20;;;15.00;99.90;;;;;;5111938;28;20181;-72
2022/09/09 22:41:54;;;;;;;1.35;1.10;;;15.00;99.90;;;;;;5111898;28;20272;-72
2022/09/09 22:44:22;;;;;;;1.17;1.00;;;15.00;99.90;;;;;;5111930;28;20188;-72
2022/09/09 22:46:48;;;;;;;2.20;1.10;;;14.90;99.90;;;;;;5111644;28;20204;-72
2022/09/09 22:49:14;;;;;;;1.75;0.98;;;14.80;99.90;;;;;;5112120;28;20631;-72
2022/09/09 22:51:40;;;;;;;1.95;1.13;;;14.80;99.90;;;;;;5096294;28;20161;-72
2022/09/09 22:54:06;;;;;;;4.22;1.50;;;14.70;99.90;;;;;;5111737;28;20193;-72
2022/09/09 22:56:33;;;;;;;2.13;1.20;;;14.70;99.90;;;;;;5111495;28;20181;-72
2022/09/09 22:58:58;;;;;;;2.03;1.20;;;14.60;99.90;;;;;;5111686;28;20648;-72
2022/09/09 23:01:25;;;;;;;4.65;1.30;;;14.60;99.90;;;;;;5111868;28;20277;-72
2022/09/09 23:03:52;;;;;;;1.98;1.23;;;14.50;99.90;;;;;;5111419;28;20224;-72
2022/09/09 23:06:21;;;;;;;3.47;1.30;;;14.50;99.90;;;;;;5111277;28;20208;-72
2022/09/09 23:08:59;;;;;;;1.75;1.10;;;14.50;99.90;;;;;;5111642;28;20187;-72
2022/09/09 23:11:35;;;;;;;3.47;1.25;;;14.40;99.90;;;;;;5111305;28;20169;-72